createdAt,value
2022-07-29T00:01:03.303Z,51.37
2022-07-29T00:03:30.751Z,51.54
2022-07-29T00:05:57.940Z,51.63
2022-07-29T00:08:25.128Z,51.58
2022-07-29T00:10:52.725Z,51.69
2022-07-29T00:13:31.753Z,51.79
2022-07-29T00:16:04.858Z,52.00
2022-07-29T00:18:33.021Z,52.07
2022-07-29T00:21:00.649Z,52.13
2022-07-29T00:23:27.813Z,52.19
2022-07-29T00:25:54.913Z,52.33
2022-07-29T00:28:22.259Z,52.37
2022-07-29T00:30:49.334Z,52.44
2022-07-29T00:33:16.431Z,52.71
2022-07-29T00:35:47.136Z,52.75
2022-07-29T00:38:16.750Z,52.70
2022-07-29T00:40:44.566Z,52.83
2022-07-29T00:43:13.057Z,53.22
2022-07-29T00:45:40.582Z,53.26
2022-07-29T00:48:09.636Z,53.29
2022-07-29T00:50:37.926Z,53.43
2022-07-29T00:53:07.739Z,53.56
2022-07-29T00:55:35.898Z,53.49
2022-07-29T00:58:03.070Z,53.37
2022-07-29T01:00:30.529Z,53.66
2022-07-29T01:02:58.564Z,53.81
2022-07-29T01:05:50.478Z,53.83
2022-07-29T01:08:16.646Z,53.83
2022-07-29T01:10:45.372Z,53.92
2022-07-29T01:13:13.122Z,53.99
2022-07-29T01:15:49.521Z,53.97
2022-07-29T01:18:27.172Z,54.01
2022-07-29T01:21:19.619Z,54.15
2022-07-29T01:24:05.354Z,54.19
2022-07-29T01:26:57.642Z,54.20
2022-07-29T01:29:36.122Z,54.23
2022-07-29T01:32:27.918Z,54.48
2022-07-29T01:35:10.850Z,54.56
2022-07-29T01:37:50.211Z,54.49
2022-07-29T01:40:25.520Z,54.57
2022-07-29T01:42:56.642Z,54.59
2022-07-29T01:45:43.162Z,54.67
2022-07-29T01:48:13.439Z,54.65
2022-07-29T01:50:48.769Z,54.50
2022-07-29T01:53:23.231Z,54.87
2022-07-29T01:55:51.165Z,54.85
2022-07-29T01:58:19.930Z,54.99
2022-07-29T02:00:47.950Z,55.05
2022-07-29T02:03:18.621Z,55.13
2022-07-29T02:05:46.865Z,55.27
2022-07-29T02:08:14.676Z,55.29
2022-07-29T02:10:43.384Z,55.49
2022-07-29T02:13:12.514Z,55.62
2022-07-29T02:15:40.521Z,55.61
2022-07-29T02:18:14.172Z,55.80
2022-07-29T02:20:45.766Z,55.81
2022-07-29T02:23:14.150Z,55.85
2022-07-29T02:25:43.161Z,56.04
2022-07-29T02:28:10.233Z,56.16
2022-07-29T02:30:41.194Z,56.42
2022-07-29T02:33:10.447Z,56.62
2022-07-29T02:35:38.362Z,56.68
2022-07-29T02:38:23.974Z,56.40
2022-07-29T02:40:51.954Z,56.46
2022-07-29T02:43:20.386Z,56.76
2022-07-29T02:45:51.927Z,56.74
2022-07-29T02:48:24.345Z,56.82
2022-07-29T02:50:54.415Z,57.00
2022-07-29T02:53:25.219Z,57.08
2022-07-29T02:56:14.487Z,57.03
2022-07-29T02:58:46.383Z,57.18
2022-07-29T03:01:21.680Z,57.29
2022-07-29T03:03:51.072Z,57.51
2022-07-29T03:06:28.480Z,57.41
2022-07-29T03:09:12.589Z,57.33
2022-07-29T03:11:50.375Z,57.65
2022-07-29T03:14:20.539Z,57.59
2022-07-29T03:16:48.414Z,57.59
2022-07-29T03:19:15.707Z,57.66
2022-07-29T03:21:43.166Z,57.62
2022-07-29T03:24:10.933Z,57.77
2022-07-29T03:26:38.370Z,58.01
2022-07-29T03:29:05.915Z,57.92
2022-07-29T03:31:34.210Z,58.07
2022-07-29T03:34:01.435Z,57.93
2022-07-29T03:36:28.778Z,57.69
2022-07-29T03:38:56.003Z,57.83
2022-07-29T03:41:23.880Z,57.65
2022-07-29T03:43:52.789Z,57.67
2022-07-29T03:46:22.185Z,57.55
2022-07-29T03:48:52.394Z,57.54
2022-07-29T03:51:19.928Z,57.56
2022-07-29T03:54:09.291Z,57.57
2022-07-29T03:56:40.720Z,57.45
2022-07-29T03:59:08.267Z,57.49
2022-07-29T04:01:36.315Z,57.38
2022-07-29T04:04:05.593Z,57.35
2022-07-29T04:06:40.388Z,57.28
2022-07-29T04:09:09.941Z,57.39
2022-07-29T04:12:02.433Z,57.32
2022-07-29T04:14:26.087Z,57.18
2022-07-29T04:16:54.040Z,56.98
2022-07-29T04:19:21.213Z,56.83
2022-07-29T04:21:48.583Z,57.03
2022-07-29T04:24:16.108Z,56.84
2022-07-29T04:26:44.411Z,56.65
2022-07-29T04:29:12.964Z,56.43
2022-07-29T04:31:40.113Z,56.13
2022-07-29T04:34:07.346Z,55.77
2022-07-29T04:36:34.763Z,55.69
2022-07-29T04:39:02.256Z,55.47
2022-07-29T04:41:32.770Z,55.20
2022-07-29T04:44:04.674Z,54.99
2022-07-29T04:46:31.951Z,54.69
2022-07-29T04:48:59.117Z,54.30
2022-07-29T04:51:26.621Z,54.00
2022-07-29T04:53:53.695Z,53.63
2022-07-29T04:56:20.841Z,53.04
2022-07-29T04:58:48.521Z,52.46
2022-07-29T05:01:16.075Z,51.83
2022-07-29T05:03:43.319Z,51.83
2022-07-29T05:06:10.702Z,51.77
2022-07-29T05:08:38.038Z,51.68
2022-07-29T05:11:11.824Z,51.94
2022-07-29T05:13:46.321Z,51.52
2022-07-29T05:16:14.968Z,51.47
2022-07-29T05:18:43.218Z,51.62
2022-07-29T05:21:10.521Z,51.60
2022-07-29T05:23:37.632Z,51.17
2022-07-29T05:26:05.043Z,51.23
2022-07-29T05:28:36.137Z,51.12
2022-07-29T05:31:03.484Z,50.58
2022-07-29T05:33:36.159Z,50.44
2022-07-29T05:36:08.319Z,50.08
2022-07-29T05:38:37.013Z,49.73
2022-07-29T05:41:05.240Z,49.69
2022-07-29T05:43:32.812Z,49.63
2022-07-29T05:46:00.572Z,49.76
2022-07-29T05:48:27.907Z,49.67
2022-07-29T05:50:55.856Z,49.84
2022-07-29T05:53:23.437Z,49.65
2022-07-29T05:55:51.028Z,50.09
2022-07-29T05:58:18.361Z,50.10
2022-07-29T06:00:46.197Z,49.84
2022-07-29T06:03:13.802Z,49.96
2022-07-29T06:05:40.958Z,49.83
2022-07-29T06:08:08.575Z,49.65
2022-07-29T06:10:36.661Z,49.17
2022-07-29T06:13:04.010Z,49.20
2022-07-29T06:15:31.078Z,48.71
2022-07-29T06:18:00.324Z,48.27
2022-07-29T06:20:31.207Z,48.38
2022-07-29T06:23:01.289Z,47.99
2022-07-29T06:25:31.493Z,47.58
2022-07-29T06:27:59.226Z,47.70
2022-07-29T06:30:26.497Z,48.18
2022-07-29T06:32:53.911Z,47.67
2022-07-29T06:35:41.217Z,47.53
2022-07-29T06:38:29.817Z,47.77
2022-07-29T06:41:01.800Z,47.68
2022-07-29T06:43:50.533Z,47.17
2022-07-29T06:46:19.705Z,47.46
2022-07-29T06:48:48.413Z,47.66
2022-07-29T06:51:21.674Z,47.44
2022-07-29T06:54:01.728Z,47.32
2022-07-29T06:56:38.263Z,47.15
2022-07-29T06:59:08.315Z,47.02
2022-07-29T07:01:37.327Z,46.93
2022-07-29T07:04:04.563Z,46.49
2022-07-29T07:06:31.958Z,46.43
2022-07-29T07:08:59.074Z,46.59
2022-07-29T07:11:26.157Z,46.60
2022-07-29T07:13:54.433Z,46.52
2022-07-29T07:16:23.575Z,46.41
2022-07-29T07:18:50.777Z,46.16
2022-07-29T07:21:19.311Z,45.22
2022-07-29T07:23:47.354Z,44.80
2022-07-29T07:26:14.914Z,44.79
2022-07-29T07:28:42.341Z,44.70
2022-07-29T07:31:10.493Z,44.61
2022-07-29T07:33:37.644Z,44.55
2022-07-29T07:36:05.165Z,44.02
2022-07-29T07:38:32.343Z,43.68
2022-07-29T07:40:59.817Z,43.40
2022-07-29T07:43:27.175Z,43.13
2022-07-29T07:45:54.268Z,43.32
2022-07-29T07:48:21.490Z,43.59
2022-07-29T07:50:50.334Z,42.80
2022-07-29T07:53:17.606Z,42.66
2022-07-29T07:56:09.330Z,42.40
2022-07-29T07:58:32.200Z,42.31
2022-07-29T08:00:59.325Z,41.41
2022-07-29T08:03:26.747Z,41.48
2022-07-29T08:05:55.265Z,41.30
2022-07-29T08:08:22.480Z,41.62
2022-07-29T08:11:02.135Z,41.22
2022-07-29T08:13:33.091Z,41.17
2022-07-29T08:16:12.510Z,41.36
2022-07-29T08:18:41.087Z,41.13
2022-07-29T08:21:08.468Z,40.49
2022-07-29T08:23:50.590Z,40.52
2022-07-29T08:26:19.516Z,39.58
2022-07-29T08:28:49.629Z,40.83
2022-07-29T08:31:17.523Z,40.16
2022-07-29T08:33:44.945Z,38.57
2022-07-29T08:36:14.070Z,38.16
2022-07-29T08:38:41.276Z,38.78
2022-07-29T08:41:08.716Z,38.14
2022-07-29T08:43:38.419Z,37.73
2022-07-29T08:46:05.618Z,38.09
2022-07-29T08:48:33.606Z,37.70
2022-07-29T08:51:01.504Z,37.81
2022-07-29T08:53:30.027Z,37.47
2022-07-29T08:55:58.317Z,37.19
2022-07-29T08:58:26.771Z,38.10
2022-07-29T09:00:55.885Z,36.68
2022-07-29T09:03:31.065Z,35.50
2022-07-29T09:06:00.110Z,35.98
2022-07-29T09:08:28.178Z,36.60
2022-07-29T09:10:56.815Z,35.71
2022-07-29T09:13:24.107Z,36.31
2022-07-29T09:15:51.565Z,34.46
2022-07-29T09:18:45.675Z,34.69
2022-07-29T09:21:34.422Z,36.11
2022-07-29T09:24:02.445Z,35.39
2022-07-29T09:26:34.105Z,35.00
2022-07-29T09:29:01.397Z,34.02
2022-07-29T09:31:36.358Z,34.03
2022-07-29T09:34:05.412Z,34.47
2022-07-29T09:36:40.157Z,32.66
2022-07-29T09:39:07.727Z,33.12
2022-07-29T09:41:56.788Z,32.95
2022-07-29T09:44:25.205Z,33.51
2022-07-29T09:46:56.121Z,34.09
2022-07-29T09:49:24.909Z,33.27
2022-07-29T09:52:21.353Z,31.67
2022-07-29T09:54:48.811Z,32.45
2022-07-29T09:57:31.057Z,32.08
2022-07-29T10:00:01.470Z,33.06
2022-07-29T10:02:41.484Z,30.84
2022-07-29T10:05:36.879Z,31.16
2022-07-29T10:08:04.362Z,30.61
2022-07-29T10:10:34.861Z,30.69
2022-07-29T10:13:08.776Z,31.09
2022-07-29T10:15:41.982Z,32.15
2022-07-29T10:18:10.203Z,31.62
2022-07-29T10:20:38.146Z,30.99
2022-07-29T10:23:06.042Z,29.06
2022-07-29T10:25:33.667Z,28.81
2022-07-29T10:28:00.838Z,29.50
2022-07-29T10:30:28.448Z,29.02
2022-07-29T10:33:07.901Z,28.96
2022-07-29T10:35:55.922Z,30.14
2022-07-29T10:38:52.270Z,28.75
2022-07-29T10:41:31.858Z,28.45
2022-07-29T10:44:02.972Z,29.31
2022-07-29T10:46:36.420Z,27.51
2022-07-29T10:49:19.365Z,27.71
2022-07-29T10:52:02.509Z,27.86
2022-07-29T10:54:36.402Z,28.56
2022-07-29T10:57:25.711Z,29.30
2022-07-29T11:00:14.365Z,29.20
2022-07-29T11:02:46.415Z,28.46
2022-07-29T11:05:19.690Z,27.85
2022-07-29T11:08:20.428Z,27.41
2022-07-29T11:10:49.571Z,28.10
2022-07-29T11:13:47.216Z,28.33
2022-07-29T11:16:16.698Z,27.85
2022-07-29T11:19:13.275Z,27.59
2022-07-29T11:21:54.747Z,26.79
2022-07-29T11:24:28.863Z,26.35
2022-07-29T11:27:14.580Z,26.87
2022-07-29T11:29:53.481Z,27.11
2022-07-29T11:32:23.553Z,27.90
2022-07-29T11:35:17.194Z,27.77
2022-07-29T11:38:27.975Z,27.47
2022-07-29T11:41:25.164Z,26.89
2022-07-29T11:43:56.824Z,25.63
2022-07-29T11:46:50.006Z,27.00
2022-07-29T11:49:31.788Z,26.78
2022-07-29T11:52:02.760Z,27.78
2022-07-29T11:54:57.206Z,28.42
2022-07-29T11:57:29.509Z,30.03
2022-07-29T12:00:10.000Z,31.96
2022-07-29T12:02:44.610Z,30.85
2022-07-29T12:05:24.009Z,29.65
2022-07-29T12:08:29.902Z,30.78
2022-07-29T12:10:56.878Z,30.17
2022-07-29T12:13:37.684Z,29.41
2022-07-29T12:16:05.618Z,30.10
2022-07-29T12:18:33.302Z,30.41
2022-07-29T12:21:04.942Z,29.36
2022-07-29T12:23:35.832Z,28.42
2022-07-29T12:26:11.080Z,27.73
2022-07-29T12:28:49.984Z,27.97
2022-07-29T12:31:42.213Z,28.58
2022-07-29T12:34:05.157Z,29.21
2022-07-29T12:36:32.292Z,28.53
2022-07-29T12:38:59.390Z,28.49
2022-07-29T12:41:29.358Z,29.22
2022-07-29T12:43:57.070Z,28.44
2022-07-29T12:46:24.176Z,28.62
2022-07-29T12:48:56.024Z,27.47
2022-07-29T12:51:37.482Z,26.94
2022-07-29T12:54:08.057Z,26.07
2022-07-29T12:56:43.985Z,25.63
2022-07-29T12:59:22.748Z,25.30
2022-07-29T13:01:51.910Z,25.29
2022-07-29T13:04:27.839Z,25.73
2022-07-29T13:07:08.339Z,25.51
2022-07-29T13:09:43.051Z,25.25
2022-07-29T13:12:11.813Z,24.96
2022-07-29T13:14:50.140Z,25.36
2022-07-29T13:17:23.856Z,25.57
2022-07-29T13:20:08.645Z,25.23
2022-07-29T13:22:36.840Z,24.15
2022-07-29T13:25:04.578Z,23.89
2022-07-29T13:27:33.247Z,23.84
2022-07-29T13:30:01.790Z,23.52
2022-07-29T13:32:30.455Z,23.52
2022-07-29T13:34:58.680Z,22.42
2022-07-29T13:37:26.945Z,23.57
2022-07-29T13:39:55.281Z,23.47
2022-07-29T13:42:25.806Z,23.43
2022-07-29T13:44:55.976Z,22.70
2022-07-29T13:47:32.800Z,22.81
2022-07-29T13:50:06.269Z,22.45
2022-07-29T13:52:34.943Z,22.96
2022-07-29T13:55:03.304Z,22.71
2022-07-29T13:57:30.904Z,23.06
2022-07-29T13:59:58.262Z,22.39
2022-07-29T14:02:26.305Z,21.38
2022-07-29T14:04:55.141Z,21.51
2022-07-29T14:07:23.256Z,20.96
2022-07-29T14:09:52.150Z,21.64
2022-07-29T14:12:20.147Z,20.69
2022-07-29T14:14:47.754Z,20.42
2022-07-29T14:17:15.736Z,20.71
2022-07-29T14:19:43.271Z,20.26
2022-07-29T14:22:10.958Z,19.98
2022-07-29T14:24:38.932Z,19.64
2022-07-29T14:27:07.802Z,19.47
2022-07-29T14:29:38.100Z,20.30
2022-07-29T14:32:09.949Z,19.49
2022-07-29T14:34:38.068Z,19.91
2022-07-29T14:37:09.463Z,20.44
2022-07-29T14:39:43.567Z,19.83
2022-07-29T14:42:12.496Z,19.43
2022-07-29T14:44:40.925Z,19.37
2022-07-29T14:47:08.825Z,20.22
2022-07-29T14:49:36.310Z,19.16
2022-07-29T14:52:03.879Z,18.75
2022-07-29T14:54:31.287Z,19.94
2022-07-29T14:56:58.837Z,20.23
2022-07-29T14:59:27.157Z,20.33
2022-07-29T15:01:54.695Z,20.33
2022-07-29T15:04:22.080Z,20.39
2022-07-29T15:06:49.345Z,20.28
2022-07-29T15:09:16.791Z,19.88
2022-07-29T15:11:43.873Z,19.92
2022-07-29T15:14:10.966Z,19.72
2022-07-29T15:16:39.438Z,20.62
2022-07-29T15:19:11.047Z,20.36
2022-07-29T15:21:41.343Z,20.50
2022-07-29T15:24:15.767Z,20.19
2022-07-29T15:26:43.590Z,20.49
2022-07-29T15:29:10.708Z,20.90
2022-07-29T15:31:37.899Z,21.90
2022-07-29T15:34:06.555Z,21.97
2022-07-29T15:39:22.096Z,20.81
2022-07-29T15:41:49.381Z,20.76
2022-07-29T15:44:16.467Z,19.79
2022-07-29T15:47:02.723Z,19.45
2022-07-29T15:49:48.368Z,19.84
2022-07-29T15:52:24.821Z,20.39
2022-07-29T15:54:57.006Z,20.37
2022-07-29T15:57:25.183Z,21.39
2022-07-29T15:59:52.366Z,20.53
2022-07-29T16:02:19.673Z,20.91
2022-07-29T16:04:47.383Z,21.98
2022-07-29T16:07:15.225Z,22.79
2022-07-29T16:09:43.236Z,24.32
2022-07-29T16:12:14.835Z,25.36
2022-07-29T16:14:43.481Z,23.85
2022-07-29T16:17:14.813Z,23.95
2022-07-29T16:19:45.655Z,22.45
2022-07-29T16:22:13.593Z,22.38
2022-07-29T16:24:40.747Z,22.42
2022-07-29T16:27:08.125Z,23.10
2022-07-29T16:29:37.185Z,23.79
2022-07-29T16:32:05.943Z,24.25
2022-07-29T16:34:33.257Z,24.94
2022-07-29T16:37:00.946Z,25.36
2022-07-29T16:39:28.138Z,26.66
2022-07-29T16:41:59.673Z,27.33
2022-07-29T16:44:27.570Z,27.52
2022-07-29T16:46:56.089Z,27.60
2022-07-29T16:49:26.566Z,27.42
2022-07-29T16:51:54.114Z,26.39
2022-07-29T16:54:21.232Z,25.20
2022-07-29T16:56:48.308Z,24.22
2022-07-29T16:59:15.683Z,23.28
2022-07-29T17:01:42.857Z,22.65
2022-07-29T17:04:11.041Z,22.88
2022-07-29T17:06:40.208Z,23.90
2022-07-29T17:09:08.913Z,23.98
2022-07-29T17:11:52.967Z,24.69
2022-07-29T17:14:27.120Z,25.23
2022-07-29T17:17:03.074Z,26.33
2022-07-29T17:19:32.526Z,26.17
2022-07-29T17:22:08.903Z,26.46
2022-07-29T17:24:38.148Z,26.76
2022-07-29T17:27:06.091Z,26.69
2022-07-29T17:29:34.886Z,26.57
2022-07-29T17:32:02.623Z,27.61
2022-07-29T17:34:29.708Z,27.96
2022-07-29T17:36:57.346Z,28.24
2022-07-29T17:39:24.931Z,28.31
2022-07-29T17:41:52.026Z,28.42
2022-07-29T17:44:19.063Z,28.79
2022-07-29T17:46:46.490Z,29.58
2022-07-29T17:49:13.776Z,29.73
2022-07-29T17:51:40.871Z,29.94
2022-07-29T17:54:08.209Z,30.62
2022-07-29T17:56:35.350Z,31.23
2022-07-29T17:59:06.564Z,32.17
2022-07-29T18:01:34.529Z,32.95
2022-07-29T18:04:02.838Z,33.49
2022-07-29T18:06:29.934Z,33.96
2022-07-29T18:08:57.081Z,34.51
2022-07-29T18:11:24.605Z,34.79
2022-07-29T18:13:51.892Z,35.69
2022-07-29T18:16:19.812Z,36.10
2022-07-29T18:18:47.363Z,36.97
2022-07-29T18:21:14.483Z,37.79
2022-07-29T18:23:42.371Z,38.12
2022-07-29T18:26:09.973Z,38.44
2022-07-29T18:28:37.178Z,39.21
2022-07-29T18:31:04.393Z,39.97
2022-07-29T18:33:32.679Z,40.25
2022-07-29T18:36:07.610Z,40.54
2022-07-29T18:38:40.594Z,41.59
2022-07-29T18:41:07.742Z,41.89
2022-07-29T18:43:34.827Z,41.44
2022-07-29T18:46:02.519Z,41.32
2022-07-29T18:48:29.775Z,41.46
2022-07-29T18:50:56.844Z,41.75
2022-07-29T18:53:24.256Z,42.01
2022-07-29T18:55:51.326Z,42.02
2022-07-29T18:58:18.380Z,41.83
2022-07-29T19:00:45.746Z,41.73
2022-07-29T19:03:12.900Z,41.93
2022-07-29T19:05:40.056Z,41.82
2022-07-29T19:08:07.548Z,41.94
2022-07-29T19:10:34.868Z,42.19
2022-07-29T19:13:01.935Z,42.93
2022-07-29T19:15:29.338Z,43.14
2022-07-29T19:18:00.858Z,43.34
2022-07-29T19:20:28.779Z,44.08
2022-07-29T19:22:56.188Z,43.67
2022-07-29T19:25:23.359Z,42.73
2022-07-29T19:27:50.448Z,41.67
2022-07-29T19:30:18.571Z,41.76
2022-07-29T19:32:45.742Z,41.50
2022-07-29T19:35:25.310Z,41.54
2022-07-29T19:37:52.923Z,41.53
2022-07-29T19:40:20.259Z,41.62
2022-07-29T19:42:51.790Z,41.68
2022-07-29T19:45:20.319Z,41.81
2022-07-29T19:47:48.604Z,42.00
2022-07-29T19:50:16.444Z,42.11
2022-07-29T19:52:45.207Z,42.13
2022-07-29T19:55:12.279Z,42.39
2022-07-29T19:57:41.234Z,42.56
2022-07-29T20:00:11.046Z,42.82
2022-07-29T20:02:40.303Z,42.93
2022-07-29T20:05:11.332Z,43.19
2022-07-29T20:07:39.707Z,43.35
2022-07-29T20:10:08.208Z,43.52
2022-07-29T20:12:37.397Z,43.61
2022-07-29T20:15:07.135Z,43.76
2022-07-29T20:17:39.892Z,43.83
2022-07-29T20:20:08.642Z,43.87
2022-07-29T20:22:36.716Z,44.12
2022-07-29T20:25:05.222Z,44.42
2022-07-29T20:27:32.682Z,44.58
2022-07-29T20:29:59.813Z,44.79
2022-07-29T20:32:26.918Z,45.00
2022-07-29T20:34:54.268Z,45.19
2022-07-29T20:37:21.391Z,45.08
2022-07-29T20:39:48.541Z,45.21
2022-07-29T20:42:16.215Z,45.24
2022-07-29T20:44:43.286Z,45.31
2022-07-29T20:47:10.588Z,45.44
2022-07-29T20:49:38.035Z,45.57
2022-07-29T20:52:05.353Z,45.76
2022-07-29T20:54:32.412Z,45.83
2022-07-29T20:57:00.059Z,46.18
2022-07-29T20:59:27.426Z,46.11
2022-07-29T21:01:55.635Z,46.35
2022-07-29T21:04:23.083Z,46.61
2022-07-29T21:06:58.318Z,46.82
2022-07-29T21:09:25.987Z,46.97
2022-07-29T21:11:53.201Z,47.03
2022-07-29T21:14:35.649Z,47.01
2022-07-29T21:17:06.332Z,47.26
2022-07-29T21:19:34.638Z,47.41
2022-07-29T21:22:01.903Z,47.62
2022-07-29T21:24:29.360Z,47.85
2022-07-29T21:27:21.294Z,48.00
2022-07-29T21:29:49.681Z,48.42
2022-07-29T21:32:29.863Z,49.01
2022-07-29T21:34:58.058Z,49.39
2022-07-29T21:37:25.301Z,49.80
2022-07-29T21:39:52.373Z,50.15
2022-07-29T21:42:19.799Z,50.44
2022-07-29T21:44:46.876Z,50.93
2022-07-29T21:47:14.109Z,51.52
2022-07-29T21:49:42.250Z,51.77
2022-07-29T21:52:09.341Z,52.20
2022-07-29T21:54:36.442Z,52.50
2022-07-29T21:57:04.529Z,52.93
2022-07-29T21:59:31.939Z,53.51
2022-07-29T22:02:01.071Z,54.02
2022-07-29T22:04:29.525Z,54.55
2022-07-29T22:06:58.044Z,55.10
2022-07-29T22:09:25.646Z,55.39
2022-07-29T22:11:53.581Z,55.65
2022-07-29T22:14:21.339Z,56.02
2022-07-29T22:16:48.718Z,56.46
2022-07-29T22:19:16.247Z,56.61
2022-07-29T22:21:43.567Z,56.91
2022-07-29T22:24:11.306Z,57.25
2022-07-29T22:26:38.697Z,57.33
2022-07-29T22:29:06.462Z,58.00
2022-07-29T22:31:33.861Z,58.34
2022-07-29T22:34:01.237Z,58.63
2022-07-29T22:36:28.286Z,58.73
2022-07-29T22:38:55.417Z,59.30
2022-07-29T22:41:22.816Z,59.50
2022-07-29T22:43:50.082Z,59.70
2022-07-29T22:46:17.180Z,59.95
2022-07-29T22:48:44.645Z,60.10
2022-07-29T22:51:11.817Z,60.22
2022-07-29T22:53:38.924Z,60.66
2022-07-29T22:56:06.502Z,60.77
2022-07-29T22:58:33.548Z,60.94
2022-07-29T23:01:00.638Z,61.09
2022-07-29T23:03:28.114Z,61.40
2022-07-29T23:05:55.230Z,61.72
2022-07-29T23:08:22.355Z,62.13
2022-07-29T23:10:49.729Z,62.49
2022-07-29T23:13:16.986Z,62.66
2022-07-29T23:15:44.087Z,63.19
2022-07-29T23:18:11.425Z,63.41
2022-07-29T23:20:38.596Z,63.92
2022-07-29T23:23:05.650Z,64.37
2022-07-29T23:25:32.987Z,64.54
2022-07-29T23:28:00.136Z,64.70
2022-07-29T23:30:28.059Z,64.91
2022-07-29T23:32:55.706Z,65.08
2022-07-29T23:35:23.517Z,65.33
2022-07-29T23:37:50.562Z,65.26
2022-07-29T23:40:18.248Z,65.40
2022-07-29T23:42:45.459Z,65.34
2022-07-29T23:45:13.281Z,65.32
2022-07-29T23:47:42.304Z,65.62
2022-07-29T23:50:15.307Z,65.77
2022-07-29T23:52:44.112Z,66.11
2022-07-29T23:55:36.742Z,66.50
2022-07-29T23:58:00.458Z,66.48
